createdAt,value
2023-04-28T00:01:26.126Z,50.51
2023-04-28T00:03:31.929Z,50.56
2023-04-28T00:05:37.224Z,50.68
2023-04-28T00:07:41.010Z,50.67
2023-04-28T00:09:45.483Z,50.87
2023-04-28T00:11:49.008Z,50.66
2023-04-28T00:13:51.854Z,50.53
2023-04-28T00:15:56.279Z,50.71
2023-04-28T00:17:59.976Z,50.68
2023-04-28T00:20:07.992Z,50.84
2023-04-28T00:22:13.454Z,50.92
2023-04-28T00:24:20.038Z,50.99
2023-04-28T00:26:23.917Z,50.86
2023-04-28T00:28:34.033Z,51.07
2023-04-28T00:30:38.762Z,50.95
2023-04-28T00:32:43.881Z,51.01
2023-04-28T00:34:46.600Z,51.09
2023-04-28T00:36:49.679Z,51.43
2023-04-28T00:38:54.042Z,51.42
2023-04-28T00:40:57.081Z,51.45
2023-04-28T00:43:00.344Z,51.36
2023-04-28T00:45:06.568Z,51.64
2023-04-28T00:47:10.459Z,51.83
2023-04-28T00:49:15.231Z,51.93
2023-04-28T00:51:21.930Z,52.05
2023-04-28T00:53:26.366Z,52.16
2023-04-28T00:55:36.565Z,52.01
2023-04-28T00:57:40.165Z,52.13
2023-04-28T00:59:43.152Z,52.24
2023-04-28T01:01:47.090Z,52.30
2023-04-28T01:03:50.826Z,52.23
2023-04-28T01:05:53.851Z,52.46
2023-04-28T01:07:56.949Z,52.34
2023-04-28T01:10:02.336Z,52.40
2023-04-28T01:12:07.875Z,52.33
2023-04-28T01:14:22.910Z,52.57
2023-04-28T01:16:28.664Z,52.59
2023-04-28T01:18:34.770Z,52.74
2023-04-28T01:20:38.728Z,52.55
2023-04-28T01:22:44.244Z,52.68
2023-04-28T01:24:48.887Z,52.52
2023-04-28T01:27:00.355Z,52.61
2023-04-28T01:29:08.884Z,52.70
2023-04-28T01:31:11.725Z,52.75
2023-04-28T01:33:15.014Z,52.61
2023-04-28T01:35:18.628Z,52.87
2023-04-28T01:37:26.403Z,52.99
2023-04-28T01:39:31.745Z,53.02
2023-04-28T01:41:37.871Z,53.04
2023-04-28T01:43:45.604Z,52.98
2023-04-28T01:46:04.181Z,53.10
2023-04-28T01:48:08.774Z,53.09
2023-04-28T01:50:15.801Z,53.16
2023-04-28T01:52:29.367Z,53.18
2023-04-28T01:54:34.194Z,53.31
2023-04-28T01:56:37.191Z,53.08
2023-04-28T01:58:40.552Z,53.37
2023-04-28T02:01:02.514Z,53.19
2023-04-28T02:03:10.827Z,53.27
2023-04-28T02:05:16.068Z,53.45
2023-04-28T02:07:20.076Z,53.40
2023-04-28T02:09:24.804Z,53.44
2023-04-28T02:11:30.026Z,53.52
2023-04-28T02:13:38.454Z,53.56
2023-04-28T02:15:54.832Z,53.54
2023-04-28T02:17:58.153Z,53.60
2023-04-28T02:20:06.713Z,53.61
2023-04-28T02:22:10.552Z,53.62
2023-04-28T02:24:18.698Z,53.75
2023-04-28T02:26:28.942Z,53.85
2023-04-28T02:28:51.026Z,53.90
2023-04-28T02:31:09.721Z,53.91
2023-04-28T02:33:17.423Z,54.00
2023-04-28T02:35:24.746Z,53.83
2023-04-28T02:37:30.392Z,54.15
2023-04-28T02:39:34.589Z,54.28
2023-04-28T02:41:39.379Z,54.34
2023-04-28T02:43:45.292Z,54.47
2023-04-28T02:45:55.427Z,54.37
2023-04-28T02:48:03.660Z,54.41
2023-04-28T02:50:08.763Z,54.37
2023-04-28T02:52:21.689Z,54.36
2023-04-28T02:54:34.190Z,54.45
2023-04-28T02:56:40.981Z,54.29
2023-04-28T02:58:44.146Z,54.40
2023-04-28T03:00:48.347Z,54.35
2023-04-28T03:02:51.878Z,54.38
2023-04-28T03:04:54.612Z,54.28
2023-04-28T03:06:59.440Z,54.42
2023-04-28T03:09:02.212Z,54.62
2023-04-28T03:11:05.413Z,54.48
2023-04-28T03:13:11.580Z,54.56
2023-04-28T03:15:15.388Z,54.69
2023-04-28T03:17:19.519Z,54.62
2023-04-28T03:19:22.779Z,54.65
2023-04-28T03:21:29.957Z,54.61
2023-04-28T03:23:33.795Z,54.54
2023-04-28T03:25:39.054Z,54.54
2023-04-28T03:27:44.846Z,54.60
2023-04-28T03:29:48.166Z,54.81
2023-04-28T03:31:53.094Z,54.90
2023-04-28T03:34:00.952Z,54.82
2023-04-28T03:36:05.682Z,54.88
2023-04-28T03:38:31.156Z,54.98
2023-04-28T03:40:37.274Z,54.91
2023-04-28T03:42:54.557Z,54.87
2023-04-28T03:45:08.926Z,54.94
2023-04-28T03:49:33.218Z,55.05
2023-04-28T03:51:38.992Z,55.13
2023-04-28T03:53:44.538Z,55.17
2023-04-28T03:55:51.369Z,55.26
2023-04-28T03:58:00.150Z,55.31
2023-04-28T04:00:06.126Z,55.37
2023-04-28T04:02:19.666Z,55.50
2023-04-28T04:04:29.067Z,55.53
2023-04-28T04:06:33.175Z,55.38
2023-04-28T04:08:37.819Z,55.28
2023-04-28T04:10:40.850Z,55.44
2023-04-28T04:12:50.764Z,55.52
2023-04-28T04:14:56.031Z,55.54
2023-04-28T04:17:00.095Z,55.47
2023-04-28T04:19:07.658Z,55.59
2023-04-28T04:21:34.527Z,55.71
2023-04-28T04:23:38.551Z,55.77
2023-04-28T04:25:54.748Z,55.79
2023-04-28T04:28:02.901Z,55.75
2023-04-28T04:30:11.608Z,55.92
2023-04-28T04:32:19.539Z,55.91
2023-04-28T04:34:31.691Z,55.96
2023-04-28T04:36:37.359Z,55.93
2023-04-28T04:38:46.225Z,55.89
2023-04-28T04:40:54.819Z,56.06
2023-04-28T04:42:59.518Z,55.88
2023-04-28T04:45:05.592Z,56.08
2023-04-28T04:47:12.087Z,56.04
2023-04-28T04:49:15.336Z,56.23
2023-04-28T04:51:19.880Z,56.31
2023-04-28T04:53:23.923Z,56.44
2023-04-28T04:55:28.810Z,56.77
2023-04-28T04:57:33.346Z,57.01
2023-04-28T04:59:41.670Z,57.18
2023-04-28T05:01:49.239Z,57.37
2023-04-28T05:03:56.242Z,58.03
2023-04-28T05:06:00.494Z,58.38
2023-04-28T05:08:18.896Z,58.37
2023-04-28T05:10:25.148Z,58.86
2023-04-28T05:12:29.684Z,58.72
2023-04-28T05:14:32.886Z,58.76
2023-04-28T05:16:36.081Z,59.16
2023-04-28T05:18:48.405Z,59.43
2023-04-28T05:20:55.725Z,59.43
2023-04-28T05:23:04.296Z,59.45
2023-04-28T05:25:08.529Z,59.71
2023-04-28T05:27:11.735Z,59.57
2023-04-28T05:29:19.035Z,59.61
2023-04-28T05:31:27.121Z,59.72
2023-04-28T05:33:31.317Z,59.81
2023-04-28T05:35:34.915Z,59.94
2023-04-28T05:37:41.061Z,59.69
2023-04-28T05:39:45.685Z,59.79
2023-04-28T05:41:48.800Z,60.07
2023-04-28T05:43:53.284Z,60.20
2023-04-28T05:45:56.988Z,60.10
2023-04-28T05:48:11.044Z,60.25
2023-04-28T05:50:22.880Z,60.34
2023-04-28T05:52:27.992Z,60.28
2023-04-28T05:54:31.189Z,60.50
2023-04-28T05:56:35.753Z,60.42
2023-04-28T05:58:42.380Z,60.43
2023-04-28T06:00:47.307Z,60.38
2023-04-28T06:02:53.528Z,60.17
2023-04-28T06:04:58.289Z,60.04
2023-04-28T06:07:06.051Z,60.22
2023-04-28T06:09:14.034Z,60.09
2023-04-28T06:11:19.494Z,60.22
2023-04-28T06:13:26.192Z,60.34
2023-04-28T06:15:30.740Z,60.49
2023-04-28T06:17:39.622Z,60.34
2023-04-28T06:19:44.299Z,60.31
2023-04-28T06:21:50.334Z,60.40
2023-04-28T06:23:58.360Z,60.38
2023-04-28T06:26:05.037Z,60.22
2023-04-28T06:28:11.338Z,60.51
2023-04-28T06:30:32.381Z,60.25
2023-04-28T06:32:39.193Z,60.34
2023-04-28T06:34:46.605Z,60.30
2023-04-28T06:36:55.014Z,60.40
2023-04-28T06:38:59.252Z,60.49
2023-04-28T06:41:06.465Z,60.61
2023-04-28T06:43:11.127Z,60.58
2023-04-28T06:45:18.321Z,60.53
2023-04-28T06:47:25.449Z,60.62
2023-04-28T06:49:30.222Z,60.36
2023-04-28T06:51:38.527Z,60.32
2023-04-28T06:53:44.295Z,60.56
2023-04-28T06:55:48.423Z,60.60
2023-04-28T06:57:51.421Z,60.72
2023-04-28T06:59:56.024Z,60.83
2023-04-28T07:02:04.878Z,61.08
2023-04-28T07:04:10.430Z,61.07
2023-04-28T07:06:14.608Z,61.30
2023-04-28T07:08:18.789Z,61.20
2023-04-28T07:10:21.962Z,61.50
2023-04-28T07:12:26.678Z,61.60
2023-04-28T07:14:37.628Z,61.92
2023-04-28T07:16:44.222Z,61.87
2023-04-28T07:18:48.026Z,61.83
2023-04-28T07:20:54.147Z,62.05
2023-04-28T07:22:59.118Z,62.05
2023-04-28T07:25:03.823Z,62.13
2023-04-28T07:27:09.627Z,62.08
2023-04-28T07:29:15.177Z,61.75
2023-04-28T07:31:19.196Z,62.07
2023-04-28T07:33:24.538Z,61.81
2023-04-28T07:35:27.737Z,62.23
2023-04-28T07:37:31.239Z,62.20
2023-04-28T07:39:41.077Z,62.26
2023-04-28T07:41:43.892Z,61.97
2023-04-28T07:43:49.525Z,62.15
2023-04-28T07:45:53.959Z,62.40
2023-04-28T07:47:58.119Z,62.34
2023-04-28T07:50:05.125Z,62.65
2023-04-28T07:52:08.146Z,62.66
2023-04-28T07:54:11.945Z,62.75
2023-04-28T07:56:14.609Z,62.95
2023-04-28T07:58:18.397Z,63.25
2023-04-28T08:00:22.112Z,63.48
2023-04-28T08:02:27.423Z,63.59
2023-04-28T08:04:34.145Z,63.76
2023-04-28T08:06:39.314Z,63.82
2023-04-28T08:08:45.690Z,63.71
2023-04-28T08:10:50.820Z,63.92
2023-04-28T08:12:54.422Z,64.10
2023-04-28T08:14:57.754Z,64.06
2023-04-28T08:17:01.757Z,64.24
2023-04-28T08:19:06.111Z,64.42
2023-04-28T08:21:09.792Z,64.35
2023-04-28T08:23:21.937Z,64.45
2023-04-28T08:25:25.132Z,64.83
2023-04-28T08:27:29.146Z,65.18
2023-04-28T08:29:33.842Z,65.07
2023-04-28T08:31:37.048Z,65.33
2023-04-28T08:33:39.813Z,65.69
2023-04-28T08:35:42.906Z,65.71
2023-04-28T08:37:45.738Z,65.94
2023-04-28T08:39:51.328Z,66.47
2023-04-28T08:41:55.300Z,66.93
2023-04-28T08:43:58.714Z,66.84
2023-04-28T08:46:07.774Z,66.98
2023-04-28T08:48:24.253Z,67.38
2023-04-28T08:50:50.395Z,67.68
2023-04-28T08:52:53.460Z,67.66
2023-04-28T08:55:02.093Z,67.97
2023-04-28T08:57:07.744Z,68.09
2023-04-28T08:59:14.512Z,68.16
2023-04-28T09:01:17.486Z,68.09
2023-04-28T09:03:37.322Z,67.99
2023-04-28T09:05:42.294Z,67.90
2023-04-28T09:07:54.485Z,67.60
2023-04-28T09:10:21.028Z,67.39
2023-04-28T09:12:38.702Z,67.26
2023-04-28T09:14:42.849Z,67.33
2023-04-28T09:16:53.646Z,67.47
2023-04-28T09:18:58.820Z,67.69
2023-04-28T09:21:06.634Z,67.82
2023-04-28T09:23:21.201Z,67.86
2023-04-28T09:25:39.243Z,68.01
2023-04-28T09:27:47.321Z,68.17
2023-04-28T09:29:55.633Z,68.02
2023-04-28T09:32:18.995Z,68.29
2023-04-28T09:34:26.657Z,68.14
2023-04-28T09:36:32.350Z,68.34
2023-04-28T09:38:44.546Z,68.33
2023-04-28T09:41:35.257Z,68.30
2023-04-28T09:43:38.901Z,68.34
2023-04-28T09:45:50.028Z,68.42
2023-04-28T09:48:11.299Z,68.59
2023-04-28T09:50:17.845Z,68.62
2023-04-28T09:52:23.093Z,68.74
2023-04-28T09:54:31.761Z,68.58
2023-04-28T09:56:40.617Z,68.04
2023-04-28T09:58:46.662Z,67.43
2023-04-28T10:01:00.580Z,67.18
2023-04-28T10:03:08.785Z,67.90
2023-04-28T10:05:13.157Z,67.95
2023-04-28T10:07:19.829Z,67.81
2023-04-28T10:09:26.717Z,68.27
2023-04-28T10:11:34.468Z,67.94
2023-04-28T10:13:37.358Z,68.00
2023-04-28T10:15:40.816Z,67.90
2023-04-28T10:17:45.532Z,68.22
2023-04-28T10:19:52.915Z,68.18
2023-04-28T10:22:25.755Z,68.22
2023-04-28T10:24:34.581Z,68.19
2023-04-28T10:27:28.224Z,68.25
2023-04-28T10:29:36.278Z,68.38
2023-04-28T10:32:19.137Z,68.88
2023-04-28T10:34:22.694Z,69.18
2023-04-28T10:36:50.825Z,69.05
2023-04-28T10:39:16.185Z,69.20
2023-04-28T10:41:32.242Z,69.20
2023-04-28T10:43:40.114Z,69.13
2023-04-28T10:45:50.338Z,69.07
2023-04-28T10:48:06.467Z,69.12
2023-04-28T10:50:11.555Z,69.06
2023-04-28T10:52:39.493Z,69.10
2023-04-28T10:55:09.613Z,69.19
2023-04-28T10:57:19.054Z,69.00
2023-04-28T10:59:27.260Z,68.95
2023-04-28T11:01:35.436Z,69.08
2023-04-28T11:04:08.581Z,69.33
2023-04-28T11:06:29.526Z,69.36
2023-04-28T11:08:33.395Z,69.68
2023-04-28T11:11:10.920Z,69.72
2023-04-28T11:13:34.688Z,69.90
2023-04-28T11:15:39.554Z,69.82
2023-04-28T11:17:43.540Z,69.93
2023-04-28T11:20:07.493Z,70.12
2023-04-28T11:22:20.364Z,70.42
2023-04-28T11:24:35.301Z,70.57
2023-04-28T11:26:43.090Z,70.51
2023-04-28T11:28:55.669Z,70.38
2023-04-28T11:31:19.466Z,70.30
2023-04-28T11:33:23.246Z,70.17
2023-04-28T11:35:41.516Z,70.09
2023-04-28T11:37:49.273Z,70.20
2023-04-28T11:39:57.631Z,70.00
2023-04-28T11:42:09.526Z,70.07
2023-04-28T11:44:25.564Z,70.07
2023-04-28T11:46:31.328Z,70.06
2023-04-28T11:48:42.718Z,70.05
2023-04-28T11:50:51.400Z,70.08
2023-04-28T11:52:55.554Z,70.03
2023-04-28T11:55:02.832Z,70.09
2023-04-28T11:57:13.746Z,69.98
2023-04-28T11:59:20.964Z,70.20
2023-04-28T12:01:25.192Z,69.99
2023-04-28T12:03:28.368Z,70.13
2023-04-28T12:05:36.868Z,70.12
2023-04-28T12:07:44.432Z,69.91
2023-04-28T12:10:10.069Z,70.04
2023-04-28T12:12:49.081Z,70.33
2023-04-28T12:14:59.698Z,70.17
2023-04-28T12:17:03.177Z,70.33
2023-04-28T12:19:11.105Z,70.19
2023-04-28T12:21:23.075Z,70.07
2023-04-28T12:23:36.612Z,70.35
2023-04-28T12:25:44.646Z,70.26
2023-04-28T12:28:08.481Z,70.59
2023-04-28T12:30:20.757Z,70.65
2023-04-28T12:32:41.919Z,70.59
2023-04-28T12:34:47.432Z,70.65
2023-04-28T12:36:54.305Z,70.68
2023-04-28T12:38:58.833Z,70.65
2023-04-28T12:41:03.229Z,70.69
2023-04-28T12:43:07.322Z,70.83
2023-04-28T12:45:11.422Z,71.01
2023-04-28T12:47:14.225Z,70.87
2023-04-28T12:49:19.273Z,70.57
2023-04-28T12:51:29.826Z,70.19
2023-04-28T12:53:33.012Z,70.04
2023-04-28T12:55:44.875Z,69.84
2023-04-28T12:57:55.758Z,70.04
2023-04-28T13:00:00.595Z,69.91
2023-04-28T13:02:05.774Z,69.70
2023-04-28T13:04:12.273Z,69.68
2023-04-28T13:06:17.396Z,69.54
2023-04-28T13:08:22.834Z,69.72
2023-04-28T13:10:29.907Z,69.84
2023-04-28T13:12:38.217Z,69.68
2023-04-28T13:14:46.571Z,69.71
2023-04-28T13:16:49.632Z,69.69
2023-04-28T13:18:58.642Z,69.93
2023-04-28T13:21:09.014Z,69.83
2023-04-28T13:23:18.456Z,69.80
2023-04-28T13:25:22.527Z,69.87
2023-04-28T13:27:38.197Z,69.70
2023-04-28T13:29:52.916Z,69.63
2023-04-28T13:32:06.107Z,69.51
2023-04-28T13:34:19.037Z,69.55
2023-04-28T13:36:28.145Z,69.58
2023-04-28T13:38:31.648Z,69.48
2023-04-28T13:40:40.693Z,69.50
2023-04-28T13:42:51.222Z,69.46
2023-04-28T13:45:02.741Z,69.50
2023-04-28T13:47:15.466Z,69.60
2023-04-28T13:49:20.190Z,69.54
2023-04-28T13:51:26.896Z,69.53
2023-04-28T13:53:30.707Z,69.45
2023-04-28T13:55:34.672Z,69.48
2023-04-28T13:57:39.432Z,69.65
2023-04-28T13:59:44.938Z,69.61
2023-04-28T14:01:51.770Z,69.74
2023-04-28T14:04:07.212Z,69.57
2023-04-28T14:06:22.511Z,69.81
2023-04-28T14:08:30.819Z,69.65
2023-04-28T14:10:37.068Z,69.62
2023-04-28T14:12:44.736Z,69.77
2023-04-28T14:14:59.524Z,69.81
2023-04-28T14:17:05.640Z,69.67
2023-04-28T14:19:18.124Z,69.68
2023-04-28T14:21:21.966Z,69.76
2023-04-28T14:23:28.770Z,69.98
2023-04-28T14:25:35.519Z,69.98
2023-04-28T14:27:38.194Z,69.99
2023-04-28T14:29:42.941Z,70.06
2023-04-28T14:31:51.341Z,69.76
2023-04-28T14:33:55.132Z,69.79
2023-04-28T14:36:21.798Z,69.94
2023-04-28T14:38:30.104Z,69.83
2023-04-28T14:40:36.677Z,69.85
2023-04-28T14:42:42.300Z,69.73
2023-04-28T14:44:51.774Z,69.85
2023-04-28T14:47:03.000Z,69.77
2023-04-28T14:49:10.186Z,69.90
2023-04-28T14:51:21.380Z,69.96
2023-04-28T14:53:27.183Z,69.99
2023-04-28T14:55:32.611Z,69.80
2023-04-28T14:57:37.782Z,69.77
2023-04-28T14:59:45.523Z,69.86
2023-04-28T15:01:51.723Z,69.66
2023-04-28T15:03:54.658Z,69.63
2023-04-28T15:06:15.110Z,69.79
2023-04-28T15:08:20.314Z,69.88
2023-04-28T15:10:31.628Z,69.87
2023-04-28T15:12:37.040Z,69.94
2023-04-28T15:14:45.145Z,69.96
2023-04-28T15:16:52.144Z,69.95
2023-04-28T15:18:55.544Z,70.14
2023-04-28T15:20:59.147Z,70.31
2023-04-28T15:23:03.965Z,70.39
2023-04-28T15:25:16.239Z,70.29
2023-04-28T15:27:21.333Z,70.47
2023-04-28T15:29:28.458Z,70.31
2023-04-28T15:31:37.152Z,70.16
2023-04-28T15:33:42.364Z,69.75
2023-04-28T15:35:47.263Z,69.87
2023-04-28T15:37:55.616Z,69.84
2023-04-28T15:40:02.258Z,69.67
2023-04-28T15:42:10.203Z,69.40
2023-04-28T15:44:13.963Z,69.28
2023-04-28T15:46:18.075Z,69.26
2023-04-28T15:48:24.470Z,69.36
2023-04-28T15:50:28.000Z,69.17
2023-04-28T15:52:31.974Z,69.36
2023-04-28T15:54:39.238Z,69.37
2023-04-28T15:56:44.796Z,69.39
2023-04-28T15:58:48.773Z,69.38
2023-04-28T16:00:53.001Z,69.35
2023-04-28T16:02:55.807Z,69.38
2023-04-28T16:05:03.962Z,69.23
2023-04-28T16:07:17.762Z,69.28
2023-04-28T16:09:35.422Z,69.27
2023-04-28T16:11:42.878Z,68.72
2023-04-28T16:13:52.268Z,67.95
2023-04-28T16:16:01.287Z,67.80
2023-04-28T16:18:06.570Z,67.81
2023-04-28T16:20:12.103Z,67.64
2023-04-28T16:22:20.922Z,67.68
2023-04-28T16:24:27.019Z,67.68
2023-04-28T16:26:34.222Z,67.56
2023-04-28T16:28:39.571Z,67.54
2023-04-28T16:30:44.838Z,67.76
2023-04-28T16:32:51.187Z,67.81
2023-04-28T16:35:09.028Z,67.93
2023-04-28T16:37:12.675Z,67.66
2023-04-28T16:39:16.737Z,67.55
2023-04-28T16:41:21.569Z,67.19
2023-04-28T16:43:26.938Z,66.89
2023-04-28T16:45:48.505Z,66.74
2023-04-28T16:47:52.305Z,66.55
2023-04-28T16:49:59.077Z,66.49
2023-04-28T16:52:07.906Z,66.45
2023-04-28T16:54:10.693Z,66.36
2023-04-28T16:56:16.060Z,66.10
2023-04-28T16:58:29.563Z,65.84
2023-04-28T17:02:57.494Z,65.83
2023-04-28T17:05:04.913Z,65.74
2023-04-28T17:07:07.777Z,65.66
2023-04-28T17:09:10.765Z,65.53
2023-04-28T17:11:21.954Z,65.56
2023-04-28T17:13:29.321Z,65.71
2023-04-28T17:15:37.205Z,65.57
2023-04-28T17:17:40.367Z,65.79
2023-04-28T17:19:47.659Z,65.93
2023-04-28T17:21:53.322Z,66.03
2023-04-28T17:23:58.804Z,66.25
2023-04-28T17:26:03.353Z,66.29
2023-04-28T17:28:12.027Z,66.10
2023-04-28T17:30:28.988Z,66.10
2023-04-28T17:32:37.346Z,66.15
2023-04-28T17:34:45.840Z,66.14
2023-04-28T17:36:49.320Z,66.46
2023-04-28T17:38:52.509Z,66.53
2023-04-28T17:40:57.840Z,66.49
2023-04-28T17:43:05.166Z,66.50
2023-04-28T17:45:08.644Z,66.70
2023-04-28T17:47:17.807Z,66.72
2023-04-28T17:49:25.528Z,66.66
2023-04-28T17:51:28.800Z,66.84
2023-04-28T17:53:31.721Z,67.05
2023-04-28T17:55:38.103Z,66.82
2023-04-28T17:57:40.854Z,67.05
2023-04-28T17:59:51.616Z,67.26
2023-04-28T18:01:59.019Z,67.18
2023-04-28T18:04:05.669Z,67.04
2023-04-28T18:06:09.597Z,67.21
2023-04-28T18:08:15.110Z,67.16
2023-04-28T18:10:18.484Z,67.23
2023-04-28T18:12:21.986Z,67.20
2023-04-28T18:14:26.245Z,67.36
2023-04-28T18:16:33.000Z,67.25
2023-04-28T18:18:38.265Z,67.20
2023-04-28T18:20:43.121Z,67.29
2023-04-28T18:23:02.920Z,67.12
2023-04-28T18:25:16.955Z,67.25
2023-04-28T18:27:20.077Z,67.39
2023-04-28T18:29:24.371Z,67.53
2023-04-28T18:31:28.730Z,67.35
2023-04-28T18:33:31.760Z,67.55
2023-04-28T18:35:38.463Z,67.40
2023-04-28T18:37:56.897Z,67.56
2023-04-28T18:40:08.467Z,67.88
2023-04-28T18:42:13.312Z,67.77
2023-04-28T18:44:18.224Z,68.00
2023-04-28T18:46:21.557Z,67.99
2023-04-28T18:48:25.723Z,67.95
2023-04-28T18:50:32.748Z,68.12
2023-04-28T18:52:36.191Z,68.03
2023-04-28T18:54:40.907Z,68.00
2023-04-28T18:56:47.322Z,68.04
2023-04-28T18:59:15.146Z,68.12
2023-04-28T19:01:24.450Z,67.94
2023-04-28T19:03:38.038Z,67.99
2023-04-28T19:05:45.311Z,68.04
2023-04-28T19:07:56.987Z,68.06
2023-04-28T19:10:04.249Z,68.19
2023-04-28T19:12:08.771Z,68.14
2023-04-28T19:14:15.960Z,68.22
2023-04-28T19:16:27.972Z,68.39
2023-04-28T19:18:37.295Z,68.40
2023-04-28T19:20:43.852Z,68.63
2023-04-28T19:22:48.379Z,68.35
2023-04-28T19:24:52.050Z,68.45
2023-04-28T19:27:00.167Z,68.31
2023-04-28T19:29:04.550Z,68.29
2023-04-28T19:31:17.003Z,68.34
2023-04-28T19:33:24.285Z,68.46
2023-04-28T19:35:30.254Z,68.55
2023-04-28T19:37:36.292Z,68.47
2023-04-28T19:39:41.638Z,68.40
2023-04-28T19:41:48.390Z,68.41
2023-04-28T19:44:03.963Z,68.30
2023-04-28T19:46:11.204Z,68.49
2023-04-28T19:48:21.164Z,68.32
2023-04-28T19:50:25.835Z,68.34
2023-04-28T19:52:31.364Z,68.53
2023-04-28T19:54:34.437Z,68.57
2023-04-28T19:56:39.387Z,68.48
2023-04-28T19:58:43.246Z,68.50
2023-04-28T20:00:50.390Z,68.61
2023-04-28T20:02:58.113Z,68.50
2023-04-28T20:05:05.500Z,68.62
2023-04-28T20:07:14.170Z,68.76
2023-04-28T20:09:22.089Z,68.77
2023-04-28T20:11:26.273Z,68.67
2023-04-28T20:13:29.993Z,68.80
2023-04-28T20:15:35.939Z,68.67
2023-04-28T20:17:39.792Z,68.87
2023-04-28T20:19:44.516Z,68.95
2023-04-28T20:22:07.477Z,68.90
2023-04-28T20:24:14.430Z,68.77
2023-04-28T20:26:17.393Z,69.00
2023-04-28T20:28:20.341Z,69.02
2023-04-28T20:30:25.674Z,68.94
2023-04-28T20:32:30.017Z,69.10
2023-04-28T20:34:33.719Z,69.10
2023-04-28T20:36:39.992Z,69.19
2023-04-28T20:39:04.870Z,69.16
2023-04-28T20:41:12.364Z,69.31
2023-04-28T20:43:15.407Z,69.35
2023-04-28T20:45:19.336Z,69.24
2023-04-28T20:47:21.895Z,69.24
2023-04-28T20:49:25.797Z,69.41
2023-04-28T20:51:34.167Z,69.35
2023-04-28T20:53:39.945Z,69.34
2023-04-28T20:55:44.773Z,69.46
2023-04-28T20:58:07.205Z,69.36
2023-04-28T21:00:13.782Z,69.41
2023-04-28T21:02:16.797Z,69.37
2023-04-28T21:04:20.704Z,69.23
2023-04-28T21:06:25.622Z,69.16
2023-04-28T21:08:30.131Z,69.29
2023-04-28T21:10:33.106Z,69.38
2023-04-28T21:12:38.348Z,69.33
2023-04-28T21:14:41.702Z,69.41
2023-04-28T21:17:05.622Z,69.37
2023-04-28T21:19:10.860Z,69.41
2023-04-28T21:21:14.911Z,69.40
2023-04-28T21:23:19.579Z,69.35
2023-04-28T21:25:23.066Z,69.28
2023-04-28T21:27:26.492Z,69.29
2023-04-28T21:29:29.076Z,69.32
2023-04-28T21:31:31.742Z,69.27
2023-04-28T21:33:35.790Z,69.33
2023-04-28T21:35:45.369Z,69.42
2023-04-28T21:37:50.561Z,69.23
2023-04-28T21:39:56.904Z,69.36
2023-04-28T21:44:28.405Z,69.36
2023-04-28T21:46:36.615Z,69.36
2023-04-28T21:48:39.358Z,69.51
2023-04-28T21:50:43.744Z,69.50
2023-04-28T21:52:49.150Z,69.43
2023-04-28T21:54:55.998Z,69.47
2023-04-28T21:57:02.028Z,69.57
2023-04-28T21:59:18.250Z,69.46
2023-04-28T22:01:24.947Z,69.43
2023-04-28T22:03:28.837Z,69.50
2023-04-28T22:05:32.427Z,69.54
2023-04-28T22:07:39.005Z,69.60
2023-04-28T22:09:44.733Z,69.66
2023-04-28T22:11:56.926Z,69.70
2023-04-28T22:14:06.272Z,69.85
2023-04-28T22:16:14.961Z,69.84
2023-04-28T22:18:22.083Z,70.01
2023-04-28T22:20:28.212Z,70.23
2023-04-28T22:22:37.955Z,70.48
2023-04-28T22:24:41.034Z,70.36
2023-04-28T22:26:54.162Z,70.34
2023-04-28T22:29:06.486Z,70.19
2023-04-28T22:31:13.894Z,70.19
2023-04-28T22:33:19.580Z,70.27
2023-04-28T22:35:49.921Z,70.35
2023-04-28T22:37:57.513Z,70.26
2023-04-28T22:40:02.556Z,70.47
2023-04-28T22:42:08.621Z,70.39
2023-04-28T22:44:34.995Z,70.50
2023-04-28T22:46:42.411Z,70.70
2023-04-28T22:48:52.270Z,70.92
2023-04-28T22:50:57.590Z,70.93
2023-04-28T22:53:03.121Z,71.22
2023-04-28T22:55:06.597Z,71.18
2023-04-28T22:57:10.439Z,71.49
2023-04-28T22:59:15.268Z,71.52
2023-04-28T23:01:20.042Z,71.56
2023-04-28T23:03:25.038Z,71.53
2023-04-28T23:05:27.964Z,71.44
2023-04-28T23:07:32.534Z,71.70
2023-04-28T23:09:38.576Z,71.94
2023-04-28T23:11:49.431Z,72.08
2023-04-28T23:13:52.506Z,72.30
2023-04-28T23:16:01.084Z,72.37
2023-04-28T23:18:06.870Z,72.43
2023-04-28T23:20:20.936Z,72.37
2023-04-28T23:22:28.919Z,72.49
2023-04-28T23:24:37.485Z,72.85
2023-04-28T23:26:44.009Z,72.83
2023-04-28T23:28:52.570Z,72.95
2023-04-28T23:30:56.959Z,73.04
2023-04-28T23:33:00.699Z,73.11
2023-04-28T23:35:07.512Z,72.95
2023-04-28T23:37:14.462Z,72.97
2023-04-28T23:39:42.351Z,72.81
2023-04-28T23:41:52.319Z,72.84
2023-04-28T23:44:11.940Z,73.01
2023-04-28T23:46:16.161Z,72.88
2023-04-28T23:48:23.572Z,72.86
2023-04-28T23:50:31.102Z,72.87
2023-04-28T23:52:36.991Z,72.69
2023-04-28T23:54:57.103Z,72.63
2023-04-28T23:57:03.541Z,72.54
2023-04-28T23:59:09.221Z,72.59
